Time;durP1;ratioP1;P1;durP2;ratioP2;P2;SDS_P1;SDS_P2;PMS_P1;PMS_P2;Temp;Humidity;BMP_temperature;BMP_pressure;BME280_temperature;BME280_humidity;BME280_pressure;Samples;Min_cycle;Max_cycle;Signal;HPM_P1;HPM_P2
2024/04/20 00:00:03;;;;;;;0.82;0.82;;;;;;;-145.63;100.00;61273.97;4985524;28;20167;-66
2024/04/20 00:02:30;;;;;;;0.70;0.70;;;;;;;-145.63;100.00;61273.97;4980118;28;20114;-67
2024/04/20 00:04:56;;;;;;;0.70;0.70;;;;;;;-145.63;100.00;61273.97;4986248;28;20165;-67
2024/04/20 00:07:22;;;;;;;0.90;0.90;;;;;;;-145.63;100.00;61273.97;4983244;28;20108;-66
2024/04/20 00:09:48;;;;;;;0.75;0.68;;;;;;;-145.63;100.00;61273.97;4984298;28;20034;-68
2024/04/20 00:12:15;;;;;;;1.77;0.90;;;;;;;-145.63;100.00;61273.97;4982559;28;20665;-67
2024/04/20 00:14:41;;;;;;;1.33;0.98;;;;;;;-145.63;100.00;61273.97;4985570;28;20074;-69
2024/04/20 00:17:06;;;;;;;1.00;0.90;;;;;;;-145.63;100.00;61273.97;4984290;28;20031;-67
2024/04/20 00:19:32;;;;;;;0.90;0.90;;;;;;;-145.63;100.00;61273.97;4983035;28;20026;-68
2024/04/20 00:21:58;;;;;;;0.88;0.88;;;;;;;-145.63;100.00;61273.97;4984910;28;20530;-68
2024/04/20 00:24:24;;;;;;;1.13;0.80;;;;;;;-145.63;100.00;61273.97;4981359;28;20027;-68
2024/04/20 00:26:49;;;;;;;0.70;0.70;;;;;;;-145.63;100.00;61273.97;4986799;28;20034;-70
2024/04/20 00:29:15;;;;;;;0.75;0.75;;;;;;;-145.63;100.00;61273.97;4984604;28;20105;-66
2024/04/20 00:31:40;;;;;;;0.93;0.93;;;;;;;-145.63;100.00;61273.97;4982769;28;20097;-66
2024/04/20 00:34:06;;;;;;;1.30;1.00;;;;;;;-145.63;100.00;61273.97;4983890;28;20041;-66
2024/04/20 00:36:32;;;;;;;0.93;0.90;;;;;;;-145.63;100.00;61273.97;4982438;28;20431;-67
2024/04/20 00:38:57;;;;;;;1.27;1.17;;;;;;;-145.63;100.00;61273.97;4987217;28;20113;-68
2024/04/20 00:41:23;;;;;;;1.15;0.82;;;;;;;-145.63;100.00;61273.97;4979212;28;20053;-68
2024/04/20 00:43:49;;;;;;;0.88;0.88;;;;;;;-145.63;100.00;61273.97;4982256;28;20050;-70
2024/04/20 00:46:15;;;;;;;0.90;0.90;;;;;;;-145.63;100.00;61273.97;4988203;28;20363;-71
2024/04/20 00:48:41;;;;;;;0.82;0.82;;;;;;;-145.63;100.00;61273.97;4984206;28;20037;-70
2024/04/20 00:51:07;;;;;;;1.10;1.00;;;;;;;-145.63;100.00;61273.97;4984690;28;20386;-70
2024/04/20 00:53:34;;;;;;;1.10;1.10;;;;;;;-145.63;100.00;61273.97;4982287;28;20072;-70
2024/04/20 00:56:01;;;;;;;1.23;1.13;;;;;;;-145.63;100.00;61273.97;4984248;28;20062;-68
2024/04/20 00:58:27;;;;;;;0.98;0.98;;;;;;;-145.63;100.00;61273.97;4984046;28;20387;-69
2024/04/20 01:00:52;;;;;;;1.67;1.10;;;;;;;-145.63;100.00;61273.97;4982601;28;20034;-70
2024/04/20 01:03:22;;;;;;;1.20;1.08;;;;;;;-145.63;100.00;61273.97;4987086;28;20122;-70
2024/04/20 01:05:48;;;;;;;0.93;0.93;;;;;;;-145.63;100.00;61273.97;4982864;28;20026;-67
2024/04/20 01:08:14;;;;;;;1.80;1.20;;;;;;;-145.63;100.00;61273.97;4982931;28;20066;-67
2024/04/20 01:10:40;;;;;;;1.40;1.30;;;;;;;-145.63;100.00;61273.97;4982159;28;20054;-68
2024/04/20 01:13:07;;;;;;;1.65;1.30;;;;;;;-145.63;100.00;61273.97;4981375;28;20086;-67
2024/04/20 01:15:33;;;;;;;1.50;1.40;;;;;;;-145.63;100.00;61273.97;4979396;28;20026;-67
2024/04/20 01:18:00;;;;;;;2.08;1.60;;;;;;;-145.63;100.00;61273.97;4982061;28;20027;-66
2024/04/20 01:20:26;;;;;;;1.50;1.40;;;;;;;-145.63;100.00;61273.97;4981391;28;20071;-68
2024/04/20 01:22:52;;;;;;;1.60;1.50;;;;;;;-145.63;100.00;61273.97;4983571;28;20027;-67
2024/04/20 01:25:20;;;;;;;2.92;1.65;;;;;;;-145.63;100.00;61273.97;4980307;28;20456;-67
2024/04/20 01:27:46;;;;;;;2.53;1.60;;;;;;;-145.63;100.00;61273.97;4983799;28;20039;-67
2024/04/20 01:30:15;;;;;;;1.80;1.70;;;;;;;-145.63;100.00;61273.97;4978859;28;20040;-67
2024/04/20 01:32:41;;;;;;;2.22;1.60;;;;;;;-145.63;100.00;61273.97;4983896;28;20448;-69
2024/04/20 01:35:06;;;;;;;1.60;1.50;;;;;;;-145.63;100.00;61273.97;4984804;28;20030;-68
2024/04/20 01:37:32;;;;;;;1.50;1.40;;;;;;;-145.63;100.00;61273.97;4981832;28;20391;-68
2024/04/20 01:39:58;;;;;;;1.25;1.17;;;;;;;-145.63;100.00;61273.97;4981663;28;20034;-67
2024/04/20 01:42:23;;;;;;;1.75;1.60;;;;;;;-145.63;100.00;61273.97;4980949;28;20085;-67
2024/04/20 01:44:49;;;;;;;1.88;1.45;;;;;;;-145.63;100.00;61273.97;4986151;28;20042;-67
2024/04/20 01:47:15;;;;;;;1.80;1.70;;;;;;;-145.63;100.00;61273.97;4983699;28;20031;-68
2024/04/20 01:49:40;;;;;;;1.70;1.60;;;;;;;-145.63;100.00;61273.97;4981946;28;20451;-68
2024/04/20 01:52:08;;;;;;;1.75;1.65;;;;;;;-145.63;100.00;61273.97;4980514;28;20033;-68
2024/04/20 01:54:35;;;;;;;2.85;1.90;;;;;;;-145.63;100.00;61273.97;4975096;28;20027;-68
2024/04/20 01:57:01;;;;;;;1.70;1.60;;;;;;;-145.63;100.00;61273.97;4995806;28;20101;-65
2024/04/20 01:59:26;;;;;;;1.73;1.63;;;;;;;-145.63;100.00;61273.97;4977189;28;20046;-67
2024/04/20 02:01:57;;;;;;;3.20;1.45;;;;;;;-145.63;100.00;61273.97;4979812;28;20038;-66
2024/04/20 02:04:22;;;;;;;1.73;1.50;;;;;;;-145.63;100.00;61273.97;4977921;28;20515;-68
2024/04/20 02:06:48;;;;;;;1.85;1.67;;;;;;;-145.63;100.00;61273.97;4974470;28;20023;-66
2024/04/20 02:09:14;;;;;;;2.10;1.90;;;;;;;-145.63;100.00;61273.97;4984719;28;20126;-67
2024/04/20 02:11:40;;;;;;;2.45;2.00;;;;;;;-145.63;100.00;61273.97;4996484;28;20065;-67
2024/04/20 02:14:07;;;;;;;1.70;1.60;;;;;;;-145.63;100.00;61273.97;4980815;28;20075;-66
2024/04/20 02:16:32;;;;;;;2.97;1.60;;;;;;;-145.63;100.00;61273.97;4984509;28;20145;-68
2024/04/20 02:19:18;;;;;;;2.20;1.88;;;;;;;-145.63;100.00;61273.97;4980210;28;20030;-68
2024/04/20 02:21:44;;;;;;;1.55;1.45;;;;;;;-145.63;100.00;61273.97;4981425;28;20096;-68
2024/04/20 02:24:11;;;;;;;1.80;1.70;;;;;;;-145.63;100.00;61273.97;4979345;28;20748;-68
2024/04/20 02:26:37;;;;;;;1.90;1.80;;;;;;;-145.63;100.00;61273.97;4985121;28;20047;-68
2024/04/20 02:29:03;;;;;;;1.95;1.73;;;;;;;-145.63;100.00;61273.97;4979510;28;20150;-67
2024/04/20 02:31:30;;;;;;;3.13;2.10;;;;;;;-145.63;100.00;61273.97;4980924;28;20027;-67
2024/04/20 02:33:56;;;;;;;1.90;1.80;;;;;;;-145.63;100.00;61273.97;4980188;28;20447;-68
2024/04/20 02:36:25;;;;;;;3.40;1.83;;;;;;;-145.63;100.00;61273.97;4980628;28;20034;-67
2024/04/20 02:38:50;;;;;;;2.03;1.83;;;;;;;-145.63;100.00;61273.97;4979877;28;20058;-68
2024/04/20 02:41:16;;;;;;;3.13;2.80;;;;;;;-145.63;100.00;61273.97;4983974;28;20452;-68
2024/04/20 02:43:42;;;;;;;4.10;1.88;;;;;;;-145.63;100.00;61273.97;4973921;28;20039;-67
2024/04/20 02:46:08;;;;;;;1.83;1.73;;;;;;;-145.63;100.00;61273.97;4980824;28;20026;-68
2024/04/20 02:48:34;;;;;;;1.83;1.73;;;;;;;-145.63;100.00;61273.97;4981743;28;20026;-67
2024/04/20 02:51:00;;;;;;;2.00;1.70;;;;;;;-145.63;100.00;61273.97;4979964;28;20085;-68
2024/04/20 02:53:25;;;;;;;2.58;2.33;;;;;;;-145.63;100.00;61273.97;4985819;28;20033;-67
2024/04/20 02:55:51;;;;;;;2.25;1.92;;;;;;;-145.63;100.00;61273.97;4985456;28;20033;-67
2024/04/20 02:58:16;;;;;;;2.72;1.92;;;;;;;-145.63;100.00;61273.97;4987214;28;20422;-67
2024/04/20 03:00:59;;;;;;;1.95;1.83;;;;;;;-145.63;100.00;61273.97;4987469;28;20508;-67
2024/04/20 03:03:30;;;;;;;2.03;1.90;;;;;;;-145.63;100.00;61273.97;4988279;28;20039;-67
2024/04/20 03:05:56;;;;;;;1.75;1.65;;;;;;;-145.63;100.00;61273.97;4983346;28;20065;-68
2024/04/20 03:08:22;;;;;;;2.10;1.90;;;;;;;-145.63;100.00;61273.97;4992681;28;20030;-67
2024/04/20 03:10:48;;;;;;;2.10;1.92;;;;;;;-145.63;100.00;61273.97;4994078;28;20106;-66
2024/04/20 03:13:14;;;;;;;3.53;2.10;;;;;;;-145.63;100.00;61273.97;4986888;28;20030;-67
2024/04/20 03:15:41;;;;;;;4.90;2.47;;;;;;;-145.63;100.00;61273.97;4989197;28;20073;-67
2024/04/20 03:18:07;;;;;;;2.13;1.92;;;;;;;-145.63;100.00;61273.97;4981293;28;20073;-67
2024/04/20 03:20:34;;;;;;;2.80;2.22;;;;;;;-145.63;100.00;61273.97;4983248;28;20045;-66
2024/04/20 03:22:59;;;;;;;2.33;2.13;;;;;;;-145.63;100.00;61273.97;4982904;28;20038;-67
2024/04/20 03:25:25;;;;;;;4.93;2.08;;;;;;;-145.63;100.00;61273.97;4984154;28;20635;-67
2024/04/20 03:27:51;;;;;;;2.75;2.10;;;;;;;-145.63;100.00;61273.97;4992293;28;20033;-65
2024/04/20 03:30:17;;;;;;;1.90;1.80;;;;;;;-145.63;100.00;61273.97;4980761;28;20052;-67
2024/04/20 03:32:43;;;;;;;2.08;1.90;;;;;;;-145.63;100.00;61273.97;4983677;28;20081;-66
2024/04/20 03:35:09;;;;;;;1.95;1.77;;;;;;;-145.63;100.00;61273.97;4983719;28;20038;-67
2024/04/20 03:37:35;;;;;;;1.90;1.70;;;;;;;-145.63;100.00;61273.97;4983590;28;20163;-66
2024/04/20 03:40:00;;;;;;;1.90;1.80;;;;;;;-145.63;100.00;61273.97;4983743;28;20034;-66
2024/04/20 03:42:27;;;;;;;2.55;1.58;;;;;;;-145.63;100.00;61273.97;4980042;28;20057;-65
2024/04/20 03:44:52;;;;;;;1.92;1.80;;;;;;;-145.63;100.00;61273.97;4986369;28;20118;-67
2024/04/20 03:47:19;;;;;;;2.28;1.85;;;;;;;-145.63;100.00;61273.97;4990542;28;20111;-67
2024/04/20 03:49:45;;;;;;;2.85;1.90;;;;;;;-145.63;100.00;61273.97;4982767;28;20030;-68
2024/04/20 03:52:11;;;;;;;1.80;1.70;;;;;;;-145.63;100.00;61273.97;4983537;28;20022;-69
2024/04/20 03:54:37;;;;;;;3.10;1.80;;;;;;;-145.63;100.00;61273.97;4980802;28;20370;-69
2024/04/20 03:57:03;;;;;;;1.98;1.80;;;;;;;-145.63;100.00;61273.97;4982169;28;20029;-67
2024/04/20 03:59:29;;;;;;;1.80;1.70;;;;;;;-145.63;100.00;61273.97;4983403;28;20423;-68
2024/04/20 04:01:55;;;;;;;2.75;1.70;;;;;;;-145.63;100.00;61273.97;4983778;28;20070;-67
2024/04/20 04:04:20;;;;;;;1.77;1.52;;;;;;;-145.63;100.00;61273.97;4981905;28;20030;-68
2024/04/20 04:06:46;;;;;;;3.80;1.85;;;;;;;-145.63;100.00;61273.97;4984205;28;20026;-66
2024/04/20 04:09:12;;;;;;;2.03;1.65;;;;;;;-145.63;100.00;61273.97;4986509;28;20076;-67
2024/04/20 04:11:38;;;;;;;2.20;2.00;;;;;;;-145.63;100.00;61273.97;4983650;28;20081;-66
2024/04/20 04:14:04;;;;;;;2.42;1.92;;;;;;;-145.63;100.00;61273.97;4982382;28;20455;-66
2024/04/20 04:16:29;;;;;;;2.88;2.10;;;;;;;-145.63;100.00;61273.97;4983537;28;20069;-68
2024/04/20 04:18:55;;;;;;;3.05;1.90;;;;;;;-145.63;100.00;61273.97;4982182;28;20356;-66
2024/04/20 04:21:21;;;;;;;4.00;2.00;;;;;;;-145.63;100.00;61273.97;4986736;28;20567;-66
2024/04/20 04:23:47;;;;;;;3.60;1.88;;;;;;;-145.63;100.00;61273.97;4984733;28;20027;-66
2024/04/20 04:26:12;;;;;;;4.28;2.10;;;;;;;-145.63;100.00;61273.97;4984779;28;20027;-65
2024/04/20 04:28:38;;;;;;;2.72;1.73;;;;;;;-145.63;100.00;61273.97;4989705;28;20608;-66
2024/04/20 04:31:04;;;;;;;2.17;1.80;;;;;;;-145.63;100.00;61273.97;4984337;28;20126;-67
2024/04/20 04:33:30;;;;;;;2.65;2.13;;;;;;;-145.63;100.00;61273.97;4982105;28;20103;-68
2024/04/20 04:35:57;;;;;;;2.63;2.08;;;;;;;-145.63;100.00;61273.97;4987068;28;20063;-67
2024/04/20 04:38:24;;;;;;;2.30;2.03;;;;;;;-145.63;100.00;61273.97;4986740;28;20106;-68
2024/04/20 04:40:49;;;;;;;5.68;2.70;;;;;;;-145.63;100.00;61273.97;4984378;28;20046;-68
2024/04/20 04:43:15;;;;;;;2.65;2.45;;;;;;;-145.63;100.00;61273.97;4983271;28;20030;-68
2024/04/20 04:45:41;;;;;;;2.80;2.28;;;;;;;-145.63;100.00;61273.97;4982393;28;20026;-67
2024/04/20 04:48:06;;;;;;;2.47;2.28;;;;;;;-145.63;100.00;61273.97;4982532;28;20114;-67
2024/04/20 04:50:33;;;;;;;2.50;2.30;;;;;;;-145.63;100.00;61273.97;4987386;28;20448;-68
2024/04/20 04:53:02;;;;;;;2.50;2.20;;;;;;;-145.63;100.00;61273.97;4990067;28;20054;-68
2024/04/20 04:55:32;;;;;;;2.92;2.25;;;;;;;-145.63;100.00;61273.97;4981343;28;20379;-69
2024/04/20 04:57:58;;;;;;;3.80;2.15;;;;;;;-145.63;100.00;61273.97;4983972;28;20057;-67
2024/04/20 05:00:24;;;;;;;3.33;2.40;;;;;;;-145.63;100.00;61273.97;4984211;28;20059;-66
2024/04/20 05:02:49;;;;;;;3.63;2.30;;;;;;;-145.63;100.00;61273.97;4978518;28;20073;-67
2024/04/20 05:05:15;;;;;;;4.10;2.20;;;;;;;-145.63;100.00;61273.97;4983952;28;20026;-68
2024/04/20 05:07:42;;;;;;;3.13;2.50;;;;;;;-145.63;100.00;61273.97;4989159;28;20081;-68
2024/04/20 05:10:09;;;;;;;3.22;2.30;;;;;;;-145.63;100.00;61273.97;4981906;28;20027;-67
2024/04/20 05:12:34;;;;;;;2.92;2.20;;;;;;;-145.63;100.00;61273.97;4980331;28;20454;-68
2024/04/20 05:15:00;;;;;;;3.10;2.30;;;;;;;-145.63;100.00;61273.97;4981648;28;20046;-68
2024/04/20 05:17:26;;;;;;;4.05;2.05;;;;;;;-145.63;100.00;61273.97;4984997;28;20031;-70
2024/04/20 05:19:52;;;;;;;2.97;2.25;;;;;;;-145.63;100.00;61273.97;4984142;28;20024;-68
2024/04/20 05:22:17;;;;;;;2.50;2.30;;;;;;;-145.63;100.00;61273.97;4982991;28;20050;-69
2024/04/20 05:24:43;;;;;;;6.45;2.35;;;;;;;-145.63;100.00;61273.97;4981175;28;20431;-69
2024/04/20 05:27:09;;;;;;;2.53;1.90;;;;;;;-145.63;100.00;61273.97;4986370;28;20034;-69
2024/04/20 05:29:35;;;;;;;2.33;1.90;;;;;;;-145.63;100.00;61273.97;4984269;28;20027;-68
2024/04/20 05:32:00;;;;;;;2.42;2.22;;;;;;;-145.63;100.00;61273.97;4986165;28;20026;-67
2024/04/20 05:34:26;;;;;;;3.42;2.22;;;;;;;-145.63;100.00;61273.97;4977639;28;20400;-66
2024/04/20 05:36:52;;;;;;;2.03;1.73;;;;;;;-145.63;100.00;61273.97;4981143;28;20034;-68
2024/04/20 05:39:18;;;;;;;4.13;2.38;;;;;;;-145.63;100.00;61273.97;4982464;28;20505;-68
2024/04/20 05:41:44;;;;;;;4.25;2.40;;;;;;;-145.63;100.00;61273.97;4978540;28;20130;-69
2024/04/20 05:44:10;;;;;;;5.38;2.55;;;;;;;-145.63;100.00;61273.97;4978579;28;20136;-68
2024/04/20 05:46:36;;;;;;;3.50;2.90;;;;;;;-145.63;100.00;61273.97;4981131;28;20030;-67
2024/04/20 05:49:01;;;;;;;4.90;3.03;;;;;;;-145.63;100.00;61273.97;4984139;28;20023;-68
2024/04/20 05:51:27;;;;;;;4.72;2.95;;;;;;;-145.63;100.00;61273.97;4980170;28;20018;-68
2024/04/20 05:53:53;;;;;;;5.60;2.63;;;;;;;-145.63;100.00;61273.97;4978659;28;20111;-69
2024/04/20 05:56:18;;;;;;;5.13;3.05;;;;;;;-145.63;100.00;61273.97;4983533;28;20030;-70
2024/04/20 05:58:47;;;;;;;3.63;3.20;;;;;;;-145.63;100.00;61273.97;4977292;28;20062;-67
2024/04/20 06:01:15;;;;;;;5.60;3.33;;;;;;;-145.63;100.00;61273.97;4978658;28;20373;-67
2024/04/20 06:03:41;;;;;;;3.55;2.88;;;;;;;-145.63;100.00;61273.97;4980975;28;20038;-67
2024/04/20 06:06:06;;;;;;;6.18;2.97;;;;;;;-145.63;100.00;61273.97;4989448;28;20100;-67
2024/04/20 06:08:32;;;;;;;5.70;2.88;;;;;;;-145.63;100.00;61273.97;4992906;28;20487;-67
2024/04/20 06:10:59;;;;;;;5.43;2.72;;;;;;;-145.63;100.00;61273.97;4993912;28;20053;-68
2024/04/20 06:13:25;;;;;;;5.63;3.22;;;;;;;-145.63;100.00;61273.97;4977348;28;20034;-67
2024/04/20 06:15:51;;;;;;;5.22;3.15;;;;;;;-145.63;100.00;61273.97;4974062;28;20029;-69
2024/04/20 06:18:16;;;;;;;4.38;3.13;;;;;;;-145.63;100.00;61273.97;4977461;28;20054;-69
2024/04/20 06:20:42;;;;;;;4.85;2.90;;;;;;;-145.63;100.00;61273.97;4976508;28;20364;-68
2024/04/20 06:23:10;;;;;;;3.70;3.10;;;;;;;-145.63;100.00;61273.97;4992241;28;20121;-68
2024/04/20 06:25:39;;;;;;;4.78;3.33;;;;;;;-145.63;100.00;61273.97;4975558;28;20495;-65
2024/04/20 06:28:06;;;;;;;5.13;3.42;;;;;;;-145.63;100.00;61273.97;4991409;28;20419;-66
2024/04/20 06:30:31;;;;;;;6.60;2.85;;;;;;;-145.63;100.00;61273.97;4984316;28;20054;-68
2024/04/20 06:32:57;;;;;;;4.15;3.25;;;;;;;-145.63;100.00;61273.97;4978364;28;20038;-69
2024/04/20 06:35:23;;;;;;;4.93;3.25;;;;;;;-145.63;100.00;61273.97;4988027;28;20034;-68
2024/04/20 06:37:49;;;;;;;5.50;3.38;;;;;;;-145.63;100.00;61273.97;4993436;28;20045;-67
2024/04/20 06:40:15;;;;;;;4.78;3.30;;;;;;;-145.63;100.00;61273.97;5007804;28;20489;-69
2024/04/20 06:42:44;;;;;;;5.20;3.10;;;;;;;-145.63;100.00;61273.97;5002663;28;20113;-68
2024/04/20 06:45:10;;;;;;;4.38;3.40;;;;;;;-145.63;100.00;61273.97;4987412;28;20030;-68
2024/04/20 06:47:36;;;;;;;6.65;3.38;;;;;;;-145.63;100.00;61273.97;4983487;28;20076;-68
2024/04/20 06:50:01;;;;;;;4.55;3.33;;;;;;;-145.63;100.00;61273.97;4993411;28;20033;-68
2024/04/20 06:52:28;;;;;;;4.20;3.20;;;;;;;-145.63;100.00;61273.97;4993020;28;20038;-68
2024/04/20 06:54:53;;;;;;;3.47;3.17;;;;;;;-145.63;100.00;61273.97;4981574;28;20045;-67
2024/04/20 06:57:19;;;;;;;5.25;3.50;;;;;;;-145.63;100.00;61273.97;4981058;28;20105;-68
2024/04/20 06:59:45;;;;;;;3.38;3.05;;;;;;;-145.63;100.00;61273.97;4990867;28;20464;-67
2024/04/20 07:02:12;;;;;;;6.00;3.72;;;;;;;-145.63;100.00;61273.97;4985233;28;20133;-68
2024/04/20 07:04:39;;;;;;;5.07;3.10;;;;;;;-145.63;100.00;61273.97;4991547;28;20573;-67
2024/04/20 07:07:04;;;;;;;5.65;3.25;;;;;;;-145.63;100.00;61273.97;4981015;28;20034;-68
2024/04/20 07:09:30;;;;;;;4.93;3.15;;;;;;;-145.63;100.00;61273.97;4984383;28;20039;-68
2024/04/20 07:11:56;;;;;;;7.35;2.80;;;;;;;-145.63;100.00;61273.97;4985136;28;20046;-68
2024/04/20 07:14:21;;;;;;;3.08;2.63;;;;;;;-145.63;100.00;61273.97;4992912;28;20038;-68
2024/04/20 07:16:47;;;;;;;4.22;2.60;;;;;;;-145.63;100.00;61273.97;4973869;28;20552;-67
2024/04/20 07:19:14;;;;;;;3.97;2.58;;;;;;;-145.63;100.00;61273.97;4987204;28;20030;-68
2024/04/20 07:21:39;;;;;;;2.35;2.15;;;;;;;-145.63;100.00;61273.97;4983087;28;20038;-67
2024/04/20 07:24:07;;;;;;;3.42;2.90;;;;;;;-145.63;100.00;61273.97;4978017;28;20026;-68
2024/04/20 07:26:33;;;;;;;3.53;2.20;;;;;;;-145.63;100.00;61273.97;4991987;28;20101;-68
2024/04/20 07:29:00;;;;;;;5.35;2.30;;;;;;;-145.63;100.00;61273.97;4973350;28;20030;-66
2024/04/20 07:31:26;;;;;;;3.25;2.10;;;;;;;-145.63;100.00;61273.97;4981264;28;20031;-67
2024/04/20 07:33:52;;;;;;;4.25;2.85;;;;;;;-145.63;100.00;61273.97;4981593;28;20043;-67
2024/04/20 07:36:21;;;;;;;5.35;3.00;;;;;;;-145.63;100.00;61273.97;4979239;28;20109;-67
2024/04/20 07:38:46;;;;;;;4.72;2.50;;;;;;;-145.63;100.00;61273.97;4979086;28;20449;-68
2024/04/20 07:41:12;;;;;;;6.45;2.75;;;;;;;-145.63;100.00;61273.97;5016119;28;20044;-67
2024/04/20 07:43:40;;;;;;;5.45;2.22;;;;;;;-145.63;100.00;61273.97;4998274;28;20040;-68
2024/04/20 07:46:06;;;;;;;3.05;2.15;;;;;;;-145.63;100.00;61273.97;4988375;28;20100;-68
2024/04/20 07:48:33;;;;;;;4.57;2.28;;;;;;;-145.63;100.00;61273.97;4987457;28;20031;-68
2024/04/20 07:50:59;;;;;;;3.85;2.30;;;;;;;-145.63;100.00;61273.97;4976777;28;20035;-66
2024/04/20 07:53:25;;;;;;;2.67;2.17;;;;;;;-145.63;100.00;61273.97;4976067;28;20190;-68
2024/04/20 07:55:51;;;;;;;2.40;2.20;;;;;;;-145.63;100.00;61273.97;4994877;28;20123;-68
2024/04/20 07:58:17;;;;;;;2.88;1.90;;;;;;;-145.63;100.00;61273.97;4980956;28;20262;-68
2024/04/20 08:00:44;;;;;;;3.60;1.92;;;;;;;-145.63;100.00;61273.97;4982312;28;20073;-68
2024/04/20 08:03:09;;;;;;;3.63;1.80;;;;;;;-145.63;100.00;61273.97;4995553;28;20100;-66
2024/04/20 08:05:35;;;;;;;4.93;2.10;;;;;;;-145.63;100.00;61273.97;4995074;28;20102;-69
2024/04/20 08:08:01;;;;;;;2.17;1.90;;;;;;;-145.63;100.00;61273.97;4995234;28;20073;-66
2024/04/20 08:10:27;;;;;;;3.92;1.90;;;;;;;-145.63;100.00;61273.97;4980321;28;20027;-66
2024/04/20 08:12:52;;;;;;;3.78;2.03;;;;;;;-145.63;100.00;61273.97;4987033;28;20031;-67
2024/04/20 08:15:18;;;;;;;2.63;2.13;;;;;;;-145.63;100.00;61273.97;4989204;28;20027;-67
2024/04/20 08:17:44;;;;;;;5.35;2.72;;;;;;;-145.63;100.00;61273.97;4988270;28;20746;-67
2024/04/20 08:20:10;;;;;;;4.60;2.63;;;;;;;-145.63;100.00;61273.97;4982503;28;20344;-68
2024/04/20 08:22:36;;;;;;;3.38;2.15;;;;;;;-145.63;100.00;61273.97;4994242;28;20652;-68
2024/04/20 08:25:02;;;;;;;3.17;2.38;;;;;;;-145.63;100.00;61273.97;4983318;28;20132;-66
2024/04/20 08:27:30;;;;;;;3.22;2.05;;;;;;;-145.63;100.00;61273.97;4986616;28;20065;-66
2024/04/20 08:29:56;;;;;;;3.17;2.20;;;;;;;-145.63;100.00;61273.97;4992286;28;20034;-69
2024/04/20 08:32:23;;;;;;;8.65;2.47;;;;;;;-145.63;100.00;61273.97;4993849;28;20048;-67
2024/04/20 08:34:51;;;;;;;5.45;2.35;;;;;;;-145.63;100.00;61273.97;4995102;28;20038;-66
2024/04/20 08:37:19;;;;;;;2.67;2.10;;;;;;;-145.63;100.00;61273.97;4981220;28;20034;-67
2024/04/20 08:39:46;;;;;;;3.83;2.17;;;;;;;-145.63;100.00;61273.97;4984492;28;20392;-66
2024/04/20 08:42:20;;;;;;;3.85;2.30;;;;;;;-145.63;100.00;61273.97;4989986;28;20404;-66
2024/04/20 08:44:49;;;;;;;5.22;2.92;;;;;;;-145.63;100.00;61273.97;4993985;28;20038;-67
2024/04/20 08:47:16;;;;;;;3.72;2.30;;;;;;;-145.63;100.00;61273.97;4994917;28;20463;-66
2024/04/20 08:49:43;;;;;;;2.63;2.05;;;;;;;-145.63;100.00;61273.97;4992664;28;20049;-67
2024/04/20 08:52:10;;;;;;;3.65;1.95;;;;;;;-145.63;100.00;61273.97;4981447;28;20088;-67
2024/04/20 08:54:38;;;;;;;8.50;2.20;;;;;;;-145.63;100.00;61273.97;4980713;28;20140;-68
2024/04/20 08:57:07;;;;;;;5.55;2.22;;;;;;;-145.63;100.00;61273.97;4988393;28;20030;-67
2024/04/20 08:59:35;;;;;;;4.03;2.22;;;;;;;-145.63;100.00;61273.97;4994040;28;20066;-67
2024/04/20 09:02:04;;;;;;;2.45;1.70;;;;;;;-145.63;100.00;61273.97;4994231;28;20023;-69
2024/04/20 09:04:31;;;;;;;3.47;1.80;;;;;;;-145.63;100.00;61273.97;4993685;28;20050;-67
2024/04/20 09:06:57;;;;;;;3.53;1.88;;;;;;;-145.63;100.00;61273.97;4993521;28;20124;-67
2024/04/20 09:09:23;;;;;;;6.25;1.65;;;;;;;-145.63;100.00;61273.97;4983724;28;20077;-66
2024/04/20 09:11:49;;;;;;;2.13;1.20;;;;;;;-145.63;100.00;61273.97;4979389;28;20034;-67
2024/04/20 09:14:16;;;;;;;1.42;1.25;;;;;;;-145.63;100.00;61273.97;4988738;28;20179;-66
2024/04/20 09:16:42;;;;;;;3.95;1.58;;;;;;;-145.63;100.00;61273.97;4986498;28;20061;-66
2024/04/20 09:19:08;;;;;;;5.28;2.55;;;;;;;-145.63;100.00;61273.97;4986573;28;20087;-69
2024/04/20 09:21:33;;;;;;;3.00;1.80;;;;;;;-145.63;100.00;61273.97;4986524;28;20035;-67
2024/04/20 09:24:08;;;;;;;2.35;1.50;;;;;;;-145.63;100.00;61273.97;4979839;28;20038;-68
2024/04/20 09:26:35;;;;;;;5.20;1.60;;;;;;;-145.63;100.00;61273.97;4991332;28;20476;-66
2024/04/20 09:29:01;;;;;;;4.07;1.60;;;;;;;-145.63;100.00;61273.97;4973826;28;20034;-66
2024/04/20 09:31:27;;;;;;;3.55;1.40;;;;;;;-145.63;100.00;61273.97;4985034;28;20412;-64
2024/04/20 09:33:56;;;;;;;1.90;1.10;;;;;;;-145.63;100.00;61273.97;4981954;28;20054;-67
2024/04/20 09:36:21;;;;;;;3.42;1.70;;;;;;;-145.63;100.00;61273.97;4991395;28;20367;-65
2024/04/20 09:38:47;;;;;;;1.83;1.30;;;;;;;-145.63;100.00;61273.97;4990559;28;20033;-67
2024/04/20 09:41:15;;;;;;;3.97;1.55;;;;;;;-145.63;100.00;61273.97;4990049;28;20105;-67
2024/04/20 09:43:45;;;;;;;3.67;1.52;;;;;;;-145.63;100.00;61273.97;5008672;28;20847;-66
2024/04/20 09:46:12;;;;;;;3.72;1.35;;;;;;;-145.63;100.00;61273.97;4987286;28;20049;-65
2024/04/20 09:48:38;;;;;;;2.65;1.17;;;;;;;-145.63;100.00;61273.97;4991720;28;20757;-66
2024/04/20 09:51:23;;;;;;;5.15;1.60;;;;;;;-145.63;100.00;61273.97;4991900;28;20041;-67
2024/04/20 09:53:56;;;;;;;2.60;1.45;;;;;;;-145.63;100.00;61273.97;4988901;28;20477;-67
2024/04/20 09:56:24;;;;;;;5.40;1.23;;;;;;;-145.63;100.00;61273.97;4987258;28;20465;-66
2024/04/20 09:58:52;;;;;;;1.85;1.42;;;;;;;-145.63;100.00;61273.97;4974122;28;20054;-70
2024/04/20 10:01:18;;;;;;;2.45;1.17;;;;;;;-145.63;100.00;61273.97;4982990;28;20042;-67
2024/04/20 10:03:45;;;;;;;1.63;1.40;;;;;;;-145.63;100.00;61273.97;4990862;28;20157;-67
2024/04/20 10:06:13;;;;;;;2.33;1.50;;;;;;;-145.63;100.00;61273.97;4991148;28;20455;-69
2024/04/20 10:08:41;;;;;;;3.40;1.50;;;;;;;-145.63;100.00;61273.97;4990334;28;20428;-67
2024/04/20 10:11:08;;;;;;;3.58;1.85;;;;;;;-145.63;100.00;61273.97;4981408;28;20121;-67
2024/04/20 10:13:37;;;;;;;4.53;1.35;;;;;;;-145.63;100.00;61273.97;4991470;28;20030;-65
2024/04/20 10:16:05;;;;;;;2.15;1.67;;;;;;;-145.63;100.00;61273.97;4987481;28;20030;-68
2024/04/20 10:18:31;;;;;;;1.90;1.55;;;;;;;-145.63;100.00;61273.97;4984569;28;20034;-66
2024/04/20 10:21:00;;;;;;;2.33;1.42;;;;;;;-145.63;100.00;61273.97;4978469;28;20057;-65
2024/04/20 10:23:27;;;;;;;3.13;1.67;;;;;;;-145.63;100.00;61273.97;4991294;28;20133;-66
2024/04/20 10:25:54;;;;;;;2.25;1.65;;;;;;;-145.63;100.00;61273.97;4990310;28;20387;-67
2024/04/20 10:28:30;;;;;;;2.20;1.52;;;;;;;-145.63;100.00;61273.97;4990127;28;20031;-66
2024/04/20 10:30:58;;;;;;;4.55;1.20;;;;;;;-145.63;100.00;61273.97;4984950;28;20045;-67
2024/04/20 10:33:39;;;;;;;3.17;1.40;;;;;;;-145.63;100.00;61273.97;4985523;28;20038;-68
2024/04/20 10:36:18;;;;;;;3.50;1.33;;;;;;;-145.63;100.00;61273.97;4977078;28;20113;-68
2024/04/20 10:38:44;;;;;;;3.55;1.17;;;;;;;-145.63;100.00;61273.97;4990244;28;20108;-66
2024/04/20 10:41:15;;;;;;;3.70;1.35;;;;;;;-145.63;100.00;61273.97;4977803;28;20034;-65
2024/04/20 10:43:43;;;;;;;1.92;1.50;;;;;;;-145.63;100.00;61273.97;5007566;28;20037;-67
2024/04/20 10:46:09;;;;;;;1.30;1.20;;;;;;;-145.63;100.00;61273.97;4997578;28;20073;-68
2024/04/20 10:48:40;;;;;;;1.30;1.20;;;;;;;-145.63;100.00;61273.97;4983766;28;20503;-66
2024/04/20 10:51:07;;;;;;;2.55;1.20;;;;;;;-145.63;100.00;61273.97;4976773;28;20536;-64
2024/04/20 10:53:33;;;;;;;2.20;1.40;;;;;;;-145.63;100.00;61273.97;4990768;28;20062;-68
2024/04/20 10:55:59;;;;;;;1.52;1.17;;;;;;;-145.63;100.00;61273.97;4990974;28;20066;-67
2024/04/20 10:58:27;;;;;;;1.92;1.38;;;;;;;-145.63;100.00;61273.97;4991291;28;20104;-65
2024/04/20 11:00:58;;;;;;;4.00;1.58;;;;;;;-145.63;100.00;61273.97;4984625;28;20069;-66
2024/04/20 11:03:24;;;;;;;1.60;1.50;;;;;;;-145.63;100.00;61273.97;4990914;28;20042;-64
2024/04/20 11:05:56;;;;;;;4.25;1.45;;;;;;;-145.63;100.00;61273.97;4990610;28;20570;-66